Esperanza — PD6464 — position and weather

sailwx.info

Track history (hours):
 
Tides and Currents Weather Stations Pressure Air Temp Water Temp Dewpoint Dewpoint Depression Visibility Wind Speed Wind Dir Waves Ship Positions

Esperanza

Last reported at 2014-Oct-19 10:33 UTC. Time now 2014-Oct-24 11:25 UTC.
Position N 31°18' W 017°35'.

Length 72 m; draft 4.7 m.

Type: Other ship. MMSI: 244690000.

Date/timePositionNaut miles runAvg speedWind from/ knotsBaromVisibWave heightAir tempDewpointWater temp
2014-Oct-19 10:33N 31°18' W 017°35'62 8.9
2014-Oct-19 03:33N 32°15' W 017°06'9 9.0
2014-Oct-19 02:33N 32°23' W 017°02'9 9.1
2014-Oct-19 01:33N 32°31' W 016°57'8 7.6
2014-Oct-19 00:31N 32°39' W 016°53'0 0.0
2014-Oct-18 23:31N 32°39' W 016°53'0 0.0
2014-Oct-18 22:28N 32°39' W 016°53'0 0.0
2014-Oct-18 21:31N 32°39' W 016°53'0 0.0
2014-Oct-18 20:31N 32°39' W 016°53'0 0.0
2014-Oct-18 19:31N 32°39' W 016°53'0 0.0
2014-Oct-18 18:31N 32°39' W 016°53'0 0.0
2014-Oct-18 17:31N 32°39' W 016°53'0 0.0
2014-Oct-18 16:31N 32°39' W 016°53'0 0.0
2014-Oct-18 15:31N 32°39' W 016°53'0 0.0
2014-Oct-18 14:31N 32°39' W 016°53'0 0.0
2014-Oct-18 13:31N 32°39' W 016°53'0 0.0
2014-Oct-18 12:31N 32°39' W 016°53'0 0.0
2014-Oct-18 11:31N 32°39' W 016°53'0 0.0
2014-Oct-18 10:31N 32°39' W 016°53'0 0.0
2014-Oct-18 09:31N 32°39' W 016°53'0 0.0
2014-Oct-18 08:31N 32°39' W 016°53'0 0.0
2014-Oct-18 07:28N 32°39' W 016°53'0 0.0
2014-Oct-18 06:31N 32°39' W 016°53'0 0.0
2014-Oct-18 05:31N 32°39' W 016°53'0 0.1
2014-Oct-18 04:31N 32°39' W 016°53'1 1.1
2014-Oct-18 03:33N 32°39' W 016°55'0 0.0
2014-Oct-18 02:33N 32°39' W 016°55'0 0.0
2014-Oct-18 01:33N 32°39' W 016°55'0 0.0
2014-Oct-18 00:33N 32°39' W 016°55'0 0.0
2014-Oct-17 23:32N 32°39' W 016°55'0 0.0
2014-Oct-17 22:32N 32°39' W 016°55'0 0.0
2014-Oct-17 21:32N 32°39' W 016°55'0 0.0
2014-Oct-17 20:32N 32°39' W 016°55'0 0.0
2014-Oct-17 19:32N 32°39' W 016°55'0 0.0
2014-Oct-17 18:32N 32°39' W 016°55'0 0.0
2014-Oct-17 17:32N 32°39' W 016°55'0 0.0
2014-Oct-17 16:32N 32°39' W 016°55'0 0.0
2014-Oct-17 15:32N 32°39' W 016°55'0 0.0
2014-Oct-17 14:32N 32°39' W 016°55'0 0.0
2014-Oct-17 13:32N 32°39' W 016°55'0 0.0
2014-Oct-17 12:32N 32°39' W 016°55'4 4.6
2014-Oct-17 11:33N 32°37' W 016°50'  
2014-Oct-10 23:10N 50°33' E 000°08'4 7.2
2014-Oct-10 22:33N 50°34' E 000°14'6 6.5
2014-Oct-10 21:33N 50°36' E 000°24'8 7.6
2014-Oct-10 20:33N 50°39' E 000°35'9 9.5
2014-Oct-10 19:33N 50°44' E 000°48'2110.5
2014-Oct-10 17:31N 50°57' E 001°14'9 9.2
2014-Oct-10 16:34N 51°03' E 001°25'7 7.4
2014-Oct-10 15:34N 51°07' E 001°35'6 5.7
2014-Oct-10 14:33N 51°11' E 001°42'5 5.2
2014-Oct-10 13:33N 51°15' E 001°47'5 4.7
2014-Oct-10 12:33N 51°19' E 001°50'8 7.7
2014-Oct-10 11:33N 51°26' E 001°55'1110.6
2014-Oct-10 10:33N 51°34' E 002°06'90 6.0
2014-Oct-09 19:33N 52°31' E 003°60'1211.5
2014-Oct-09 18:33N 52°31' E 004°19'9 9.1
2014-Oct-09 17:34N 52°28' E 004°33'0 0.3
2014-Oct-09 16:34N 52°28' E 004°33'0 0.4
2014-Oct-09 15:34N 52°28' E 004°33'2 2.1
2014-Oct-09 14:33N 52°28' E 004°36'6 6.3
2014-Oct-09 13:34N 52°26' E 004°46'5 4.7
2014-Oct-09 12:34N 52°24' E 004°53'0 0.0
2014-Oct-09 11:33N 52°24' E 004°53'  
Track history (hours):
 
Tides and Currents Weather Stations Pressure Air Temp Water Temp Dewpoint Dewpoint Depression Visibility Wind Speed Wind Dir Waves Ship Positions

Esperanza

Last reported at 2014-Oct-19 10:33 UTC. Time now 2014-Oct-24 11:25 UTC.
Position N 31°18' W 017°35'.

Length 72 m; draft 4.7 m.

Type: Other ship. MMSI: 244690000.

Date/timePositionNaut miles runAvg speedWind from/ knotsBaromVisibWave heightAir tempDewpointWater temp
2014-Oct-19 10:33N 31°18' W 017°35'62 8.9
2014-Oct-19 03:33N 32°15' W 017°06'9 9.0
2014-Oct-19 02:33N 32°23' W 017°02'9 9.1
2014-Oct-19 01:33N 32°31' W 016°57'8 7.6
2014-Oct-19 00:31N 32°39' W 016°53'0 0.0
2014-Oct-18 23:31N 32°39' W 016°53'0 0.0
2014-Oct-18 22:28N 32°39' W 016°53'0 0.0
2014-Oct-18 21:31N 32°39' W 016°53'0 0.0
2014-Oct-18 20:31N 32°39' W 016°53'0 0.0
2014-Oct-18 19:31N 32°39' W 016°53'0 0.0
2014-Oct-18 18:31N 32°39' W 016°53'0 0.0
2014-Oct-18 17:31N 32°39' W 016°53'0 0.0
2014-Oct-18 16:31N 32°39' W 016°53'0 0.0
2014-Oct-18 15:31N 32°39' W 016°53'0 0.0
2014-Oct-18 14:31N 32°39' W 016°53'0 0.0
2014-Oct-18 13:31N 32°39' W 016°53'0 0.0
2014-Oct-18 12:31N 32°39' W 016°53'0 0.0
2014-Oct-18 11:31N 32°39' W 016°53'0 0.0
2014-Oct-18 10:31N 32°39' W 016°53'0 0.0
2014-Oct-18 09:31N 32°39' W 016°53'0 0.0
2014-Oct-18 08:31N 32°39' W 016°53'0 0.0
2014-Oct-18 07:28N 32°39' W 016°53'0 0.0
2014-Oct-18 06:31N 32°39' W 016°53'0 0.0
2014-Oct-18 05:31N 32°39' W 016°53'0 0.1
2014-Oct-18 04:31N 32°39' W 016°53'1 1.1
2014-Oct-18 03:33N 32°39' W 016°55'0 0.0
2014-Oct-18 02:33N 32°39' W 016°55'0 0.0
2014-Oct-18 01:33N 32°39' W 016°55'0 0.0
2014-Oct-18 00:33N 32°39' W 016°55'0 0.0
2014-Oct-17 23:32N 32°39' W 016°55'0 0.0
2014-Oct-17 22:32N 32°39' W 016°55'0 0.0
2014-Oct-17 21:32N 32°39' W 016°55'0 0.0
2014-Oct-17 20:32N 32°39' W 016°55'0 0.0
2014-Oct-17 19:32N 32°39' W 016°55'0 0.0
2014-Oct-17 18:32N 32°39' W 016°55'0 0.0
2014-Oct-17 17:32N 32°39' W 016°55'0 0.0
2014-Oct-17 16:32N 32°39' W 016°55'0 0.0
2014-Oct-17 15:32N 32°39' W 016°55'0 0.0
2014-Oct-17 14:32N 32°39' W 016°55'0 0.0
2014-Oct-17 13:32N 32°39' W 016°55'0 0.0
2014-Oct-17 12:32N 32°39' W 016°55'4 4.6
2014-Oct-17 11:33N 32°37' W 016°50'  
2014-Oct-10 23:10N 50°33' E 000°08'4 7.2
2014-Oct-10 22:33N 50°34' E 000°14'6 6.5
2014-Oct-10 21:33N 50°36' E 000°24'8 7.6
2014-Oct-10 20:33N 50°39' E 000°35'9 9.5
2014-Oct-10 19:33N 50°44' E 000°48'2110.5
2014-Oct-10 17:31N 50°57' E 001°14'9 9.2
2014-Oct-10 16:34N 51°03' E 001°25'7 7.4
2014-Oct-10 15:34N 51°07' E 001°35'6 5.7
2014-Oct-10 14:33N 51°11' E 001°42'5 5.2
2014-Oct-10 13:33N 51°15' E 001°47'5 4.7
2014-Oct-10 12:33N 51°19' E 001°50'8 7.7
2014-Oct-10 11:33N 51°26' E 001°55'1110.6
2014-Oct-10 10:33N 51°34' E 002°06'90 6.0
2014-Oct-09 19:33N 52°31' E 003°60'1211.5
2014-Oct-09 18:33N 52°31' E 004°19'9 9.1
2014-Oct-09 17:34N 52°28' E 004°33'0 0.3
2014-Oct-09 16:34N 52°28' E 004°33'0 0.4
2014-Oct-09 15:34N 52°28' E 004°33'2 2.1
2014-Oct-09 14:33N 52°28' E 004°36'6 6.3
2014-Oct-09 13:34N 52°26' E 004°46'5 4.7
2014-Oct-09 12:34N 52°24' E 004°53'0 0.0
2014-Oct-09 11:33N 52°24' E 004°53'  

Dump ship's entire track history